Time;durP1;ratioP1;P1;durP2;ratioP2;P2;SDS_P1;SDS_P2;PMS_P1;PMS_P2;Temp;Humidity;BMP_temperature;BMP_pressure;BME280_temperature;BME280_humidity;BME280_pressure;Samples;Min_cycle;Max_cycle;Signal;HPM_P1;HPM_P2
2022/10/17 00:02:13;;;;;;;28.80;19.20;;;;;;;13.98;75.44;99551.45;422156;1289;108442;-41
2022/10/17 00:12:20;;;;;;;25.90;16.10;;;;;;;14.01;75.45;99555.30;421942;1288;107502;-42
2022/10/17 00:22:26;;;;;;;23.60;16.40;;;;;;;14.10;75.70;99546.42;421938;1302;95742;-41
2022/10/17 00:32:33;;;;;;;21.00;15.60;;;;;;;14.15;75.62;99547.59;422147;1295;107692;-41
2022/10/17 00:42:40;;;;;;;23.30;17.70;;;;;;;14.13;75.60;99550.84;422228;1299;96212;-41
2022/10/17 00:52:48;;;;;;;25.70;17.40;;;;;;;13.92;75.57;99549.81;421930;1302;96080;-41
2022/10/17 01:02:55;;;;;;;21.20;16.00;;;;;;;13.79;75.66;99556.94;422466;1296;109365;-41
2022/10/17 01:13:03;;;;;;;23.60;15.90;;;;;;;13.65;75.69;99572.11;421845;1281;107449;-40
2022/10/17 01:23:23;;;;;;;23.90;17.70;;;;;;;13.48;75.91;99584.08;422453;1291;95502;-40
2022/10/17 01:33:31;;;;;;;26.60;16.90;;;;;;;13.37;75.87;99582.98;422059;1292;107879;-40
2022/10/17 01:43:44;;;;;;;33.50;17.50;;;;;;;13.36;76.39;99575.58;422039;1302;96413;-39
2022/10/17 01:53:50;;;;;;;20.60;15.20;;;;;;;13.55;76.54;99571.19;422320;1296;96123;-41
2022/10/17 02:03:58;;;;;;;19.40;13.10;;;;;;;13.69;76.20;99566.98;422096;1287;107824;-40
2022/10/17 02:14:13;;;;;;;22.00;15.50;;;;;;;13.69;76.08;99569.17;421859;1293;108434;-41
2022/10/17 02:24:18;;;;;;;33.90;16.30;;;;;;;13.52;76.09;99568.65;421991;1289;95407;-40
2022/10/17 02:34:30;;;;;;;29.20;19.30;;;;;;;13.29;76.31;99564.35;422262;1289;108907;-41
2022/10/17 02:44:40;;;;;;;28.80;20.50;;;;;;;13.06;76.63;99562.77;422176;1299;97285;-41
2022/10/17 02:54:45;;;;;;;34.90;23.00;;;;;;;12.80;76.60;99582.20;422119;1298;96114;-40
2022/10/17 03:04:53;;;;;;;35.60;23.40;;;;;;;12.49;77.03;99590.80;421951;1296;108049;-42
2022/10/17 03:15:00;;;;;;;37.30;23.80;;;;;;;12.25;77.40;99596.36;421929;1281;369132;-40
2022/10/17 03:25:05;;;;;;;37.80;25.00;;;;;;;12.12;77.73;99604.59;422115;1287;109193;-40
2022/10/17 03:35:12;;;;;;;32.70;21.90;;;;;;;12.05;78.06;99602.19;422033;1299;108873;-40
2022/10/17 03:45:21;;;;;;;31.40;21.30;;;;;;;12.05;78.26;99605.48;422071;1288;95294;-40
2022/10/17 03:55:28;;;;;;;40.70;24.20;;;;;;;12.07;78.44;99616.46;422529;1288;109381;-40
2022/10/17 04:05:35;;;;;;;31.60;23.00;;;;;;;12.02;78.50;99617.20;421897;1298;95971;-41
2022/10/17 04:15:42;;;;;;;45.00;26.60;;;;;;;11.90;78.70;99627.58;422144;1296;109367;-40
2022/10/17 04:25:49;;;;;;;39.40;26.20;;;;;;;11.79;78.91;99624.65;422238;1288;108627;-40
2022/10/17 04:35:57;;;;;;;37.50;23.40;;;;;;;11.70;79.15;99623.83;421815;1289;95672;-41
2022/10/17 04:46:05;;;;;;;44.40;26.70;;;;;;;11.72;79.37;99623.58;421802;1299;109463;-42
2022/10/17 04:56:14;;;;;;;38.40;24.80;;;;;;;11.69;79.48;99621.52;422051;1299;96169;-40
2022/10/17 05:06:21;;;;;;;38.40;26.60;;;;;;;11.60;79.62;99623.23;422325;1296;109358;-40
2022/10/17 05:16:29;;;;;;;44.30;28.70;;;;;;;11.55;79.65;99630.98;422241;1299;108746;-39
2022/10/17 05:26:37;;;;;;;39.60;28.00;;;;;;;11.51;79.66;99641.52;422246;1296;96259;-39
2022/10/17 05:36:44;;;;;;;49.30;28.60;;;;;;;11.51;79.95;99650.45;422002;1299;107649;-40
2022/10/17 05:46:51;;;;;;;47.70;30.20;;;;;;;11.55;79.98;99658.25;422039;1292;96594;-41
2022/10/17 05:56:59;;;;;;;52.30;31.80;;;;;;;11.51;80.22;99656.32;421831;1299;96176;-43
2022/10/17 06:07:04;;;;;;;46.40;27.60;;;;;;;11.69;80.54;99679.06;422283;1299;108172;-40
2022/10/17 06:17:12;;;;;;;45.80;29.10;;;;;;;12.43;80.59;99693.73;422483;1282;108423;-41
2022/10/17 06:27:22;;;;;;;52.10;27.40;;;;;;;12.91;80.11;99699.42;422244;1288;96351;-41
2022/10/17 06:47:42;;;;;;;45.40;28.80;;;;;;;13.27;79.85;99728.11;422335;1299;108332;-41
2022/10/17 06:57:51;;;;;;;45.60;24.20;;;;;;;13.65;79.85;99737.41;422785;1288;96242;-42
2022/10/17 07:07:57;;;;;;;33.70;20.70;;;;;;;14.52;79.54;99742.35;422532;1282;109717;-40
2022/10/17 07:18:05;;;;;;;36.70;22.40;;;;;;;15.50;79.20;99746.83;422217;1295;107999;-40
2022/10/17 07:28:12;;;;;;;27.60;19.60;;;;;;;16.85;78.68;99745.40;421861;1299;96162;-40
2022/10/17 07:38:17;;;;;;;23.90;17.50;;;;;;;17.73;76.37;99748.02;421724;1299;96159;-41
2022/10/17 07:48:25;;;;;;;21.70;16.60;;;;;;;18.52;75.07;99755.84;422037;1290;109206;-39
2022/10/17 07:58:32;;;;;;;20.90;14.10;;;;;;;19.22;73.58;99761.94;422067;1290;107039;-40
2022/10/17 08:08:40;;;;;;;20.60;13.90;;;;;;;19.44;72.11;99763.16;421780;1295;97781;-40
2022/10/17 08:18:47;;;;;;;18.50;13.00;;;;;;;19.60;70.98;99756.77;422177;1289;110866;-39
2022/10/17 08:28:54;;;;;;;17.20;11.50;;;;;;;19.95;70.26;99757.55;421939;1296;108408;-39
2022/10/17 08:39:02;;;;;;;20.50;14.00;;;;;;;20.04;69.10;99760.06;422311;1298;97566;-39
2022/10/17 08:49:10;;;;;;;18.60;12.50;;;;;;;20.17;67.67;99759.51;422239;1297;110579;-39
2022/10/17 08:59:21;;;;;;;17.90;12.90;;;;;;;20.31;66.73;99767.86;421983;1289;107310;-38
2022/10/17 09:09:29;;;;;;;17.60;12.40;;;;;;;20.49;65.72;99766.67;421725;1291;97497;-40
2022/10/17 09:19:36;;;;;;;15.30;11.30;;;;;;;20.64;65.41;99758.25;421850;1299;97892;-39
2022/10/17 09:39:55;;;;;;;24.40;12.60;;;;;;;21.27;64.42;99758.39;421776;1299;110654;-41
2022/10/17 09:50:04;;;;;;;19.40;12.20;;;;;;;21.29;63.73;99755.34;422049;1299;97617;-40
2022/10/17 10:00:23;;;;;;;18.90;12.80;;;;;;;21.23;63.14;99763.82;422192;1295;97952;-41
2022/10/17 10:10:32;;;;;;;20.00;12.40;;;;;;;21.39;62.89;99754.39;422292;1292;110891;-41
2022/10/17 10:20:40;;;;;;;13.80;11.50;;;;;;;21.46;62.34;99754.73;421990;1281;108743;-41
2022/10/17 10:30:47;;;;;;;16.90;10.60;;;;;;;21.54;61.95;99753.06;422328;1281;97850;-40
2022/10/17 10:40:54;;;;;;;13.00;11.00;;;;;;;21.62;61.63;99762.30;422307;1289;110403;-40
2022/10/17 10:51:02;;;;;;;;;;;;;;;21.82;61.29;99760.27;422558;1289;107809;-39
2022/10/17 11:01:07;;;;;;;23.00;12.90;;;;;;;21.86;60.07;99751.44;422225;1292;97893;-40
2022/10/17 11:11:17;;;;;;;17.20;11.80;;;;;;;21.83;59.24;99749.88;421996;1297;98025;-40
2022/10/17 11:31:34;;;;;;;14.80;10.20;;;;;;;21.94;58.88;99735.76;421972;1298;97868;-39
2022/10/17 11:41:39;;;;;;;16.40;10.80;;;;;;;21.96;58.32;99729.18;421889;1296;97506;-40
2022/10/17 11:51:48;;;;;;;15.10;11.10;;;;;;;22.00;57.68;99722.54;422585;1289;96696;-39
2022/10/17 12:02:08;;;;;;;15.20;10.90;;;;;;;22.00;57.75;99717.00;422010;1297;110011;-40
2022/10/17 12:22:31;;;;;;;13.20;10.00;;;;;;;22.03;57.52;99721.25;422186;1299;98272;-39
2022/10/17 12:32:53;;;;;;;17.80;9.90;;;;;;;21.99;56.92;99719.59;421957;1299;110772;-39
2022/10/17 12:43:43;;;;;;;14.00;8.80;;;;;;;21.95;56.88;99715.61;422171;1296;108477;-42
2022/10/17 12:53:49;;;;;;;15.70;8.30;;;;;;;21.83;57.08;99715.64;421958;1296;97473;-40
2022/10/17 13:14:15;;;;;;;16.10;9.10;;;;;;;22.00;56.18;99709.09;421810;1290;110205;-41
2022/10/17 13:34:35;;;;;;;23.40;8.10;;;;;;;22.16;55.87;99707.88;421722;1290;97535;-40
2022/10/17 13:44:42;;;;;;;12.10;8.70;;;;;;;22.14;55.44;99700.14;422136;1291;110533;-39
2022/10/17 14:05:01;;;;;;;15.90;8.00;;;;;;;21.96;55.51;99698.38;422088;1289;98623;-41
2022/10/17 14:15:24;;;;;;;;;;;;;;;21.79;55.69;99703.10;422107;1297;111000;-39
2022/10/17 14:25:29;;;;;;;18.80;9.10;;;;;;;21.58;55.71;99706.27;423086;1282;107508;-40
2022/10/17 14:35:38;;;;;;;14.80;7.70;;;;;;;21.40;55.93;99710.64;422647;1289;97874;-39
2022/10/17 14:45:48;;;;;;;19.80;8.70;;;;;;;21.21;56.16;99701.42;422294;1292;110751;-39
2022/10/17 14:56:01;;;;;;;22.00;9.60;;;;;;;21.00;56.26;99702.11;422460;1290;109712;-40
2022/10/17 15:06:10;;;;;;;14.20;9.90;;;;;;;20.74;56.47;99695.31;421756;1295;97982;-40
2022/10/17 15:16:18;;;;;;;15.30;9.40;;;;;;;20.44;56.93;99688.16;420626;1292;845208;-40
2022/10/17 15:26:30;;;;;;;19.20;12.60;;;;;;;20.11;57.19;99675.76;420884;1298;109702;-40
2022/10/17 15:36:39;;;;;;;44.90;12.30;;;;;;;19.75;57.63;99674.98;421341;1288;106865;-40
2022/10/17 15:46:47;;;;;;;15.20;9.80;;;;;;;19.37;58.08;99676.15;421115;1295;97851;-42
2022/10/17 16:06:59;;;;;;;28.30;16.10;;;;;;;18.57;59.23;99670.98;420814;1291;109440;-40
2022/10/17 16:17:09;;;;;;;36.60;19.80;;;;;;;18.25;59.87;99678.00;421008;1292;97881;-41
2022/10/17 16:27:16;;;;;;;47.70;18.50;;;;;;;18.00;60.35;99677.28;421094;1291;109508;-41
2022/10/17 16:37:24;;;;;;;30.00;16.80;;;;;;;17.86;60.79;99679.75;420678;1289;108375;-41
2022/10/17 16:47:33;;;;;;;37.00;17.80;;;;;;;17.68;61.58;99675.59;420857;1299;97934;-42
2022/10/17 16:57:41;;;;;;;35.30;21.50;;;;;;;17.45;61.93;99675.30;421014;1292;110662;-45
2022/10/17 17:17:53;;;;;;;43.70;26.00;;;;;;;16.87;62.67;99692.79;420720;1298;97858;-39
2022/10/17 17:28:03;;;;;;;36.50;21.90;;;;;;;16.66;63.31;99694.70;420859;1299;107867;-38
2022/10/17 17:38:11;;;;;;;38.70;23.40;;;;;;;16.44;63.94;99686.91;420827;1297;97985;-40
2022/10/17 17:48:19;;;;;;;35.70;17.90;;;;;;;16.41;64.54;99687.93;420776;1298;97896;-39
2022/10/17 17:58:25;;;;;;;25.70;14.80;;;;;;;16.43;64.63;99687.96;420814;1299;111878;-41
2022/10/17 18:08:33;;;;;;;24.00;14.30;;;;;;;16.42;64.63;99696.11;420698;1299;108934;-39
2022/10/17 18:18:42;;;;;;;23.80;13.40;;;;;;;16.43;64.78;99692.17;420944;1296;98441;-40
2022/10/17 18:38:56;;;;;;;25.40;15.30;;;;;;;16.24;65.06;99691.11;421062;1293;108470;-40
2022/10/17 18:49:02;;;;;;;22.90;14.30;;;;;;;16.17;65.05;99691.36;420938;1292;97638;-40
2022/10/17 18:59:10;;;;;;;18.70;13.10;;;;;;;16.07;65.07;99686.58;421005;1298;111654;-39
2022/10/17 19:09:18;;;;;;;21.20;12.90;;;;;;;15.97;64.99;99681.66;421162;1299;108008;-39
2022/10/17 19:19:26;;;;;;;25.20;14.30;;;;;;;15.94;65.32;99682.73;420912;1295;97468;-40
2022/10/17 19:29:33;;;;;;;29.60;14.00;;;;;;;15.87;65.44;99676.02;420900;1299;109729;-41
2022/10/17 19:39:38;;;;;;;25.80;14.50;;;;;;;15.74;65.57;99673.17;420765;1284;108051;-41
2022/10/17 19:49:45;;;;;;;32.80;18.80;;;;;;;15.67;65.54;99678.76;421013;1295;97474;-39
2022/10/17 19:59:56;;;;;;;19.10;12.40;;;;;;;15.62;65.52;99679.14;420945;1299;110707;-39
2022/10/17 20:10:03;;;;;;;18.20;12.20;;;;;;;15.56;65.45;99676.10;420871;1299;108910;-39
2022/10/17 20:20:09;;;;;;;26.90;16.50;;;;;;;15.55;65.33;99679.23;421008;1298;98245;-39
2022/10/17 20:30:17;;;;;;;19.50;12.80;;;;;;;15.50;65.42;99683.38;421012;1292;108910;-40
2022/10/17 20:40:24;;;;;;;18.40;12.30;;;;;;;15.42;65.32;99681.32;420821;1299;108125;-39
2022/10/17 20:50:46;;;;;;;18.70;9.80;;;;;;;15.32;65.27;99675.83;421347;1299;97538;-39
2022/10/17 21:00:53;;;;;;;17.50;10.90;;;;;;;15.25;65.20;99668.81;420777;1297;109177;-39
2022/10/17 21:11:08;;;;;;;14.20;9.70;;;;;;;15.21;65.15;99663.61;420765;1298;108002;-39
2022/10/17 21:21:17;;;;;;;15.80;9.70;;;;;;;15.24;64.93;99657.53;420794;1287;96649;-40
2022/10/17 21:31:27;;;;;;;16.40;9.30;;;;;;;15.27;65.04;99655.69;420597;1299;109873;-40
2022/10/17 21:41:34;;;;;;;12.50;9.10;;;;;;;15.28;64.92;99655.02;420850;1292;106568;-39
2022/10/17 21:51:42;;;;;;;17.20;9.30;;;;;;;15.29;64.81;99656.30;420873;1289;98026;-40
2022/10/17 22:01:50;;;;;;;15.20;7.90;;;;;;;15.25;64.71;99655.27;420768;1294;109086;-40
2022/10/17 22:11:58;;;;;;;15.80;8.40;;;;;;;15.20;64.61;99650.10;420939;1284;108215;-40
2022/10/17 22:22:06;;;;;;;13.20;8.70;;;;;;;15.22;64.54;99648.17;420706;1292;97792;-39
2022/10/17 22:32:13;;;;;;;15.80;7.70;;;;;;;15.20;64.39;99642.48;420770;1300;111023;-39
2022/10/17 22:52:35;;;;;;;13.70;7.40;;;;;;;15.10;64.11;99624.52;420637;1295;97537;-39
2022/10/17 23:02:42;;;;;;;12.90;8.90;;;;;;;15.08;64.24;99628.80;421046;1299;110095;-40
2022/10/17 23:12:49;;;;;;;11.90;7.70;;;;;;;15.00;64.26;99632.41;420739;1299;108229;-41
2022/10/17 23:22:57;;;;;;;15.20;7.80;;;;;;;14.84;64.34;99631.55;420832;1299;97867;-40
2022/10/17 23:33:05;;;;;;;13.40;8.30;;;;;;;14.69;64.46;99631.00;420834;1282;113186;-41
2022/10/17 23:43:12;;;;;;;14.50;8.60;;;;;;;14.56;64.36;99624.84;420925;1285;107065;-40
2022/10/17 23:53:19;;;;;;;15.80;7.60;;;;;;;14.44;64.52;99618.16;420648;1297;96617;-41
